Time;durP1;ratioP1;P1;durP2;ratioP2;P2;SDS_P1;SDS_P2;PMS_P1;PMS_P2;Temp;Humidity;BMP_temperature;BMP_pressure;BME280_temperature;BME280_humidity;BME280_pressure;Samples;Min_cycle;Max_cycle;Signal;HPM_P1;HPM_P2
2022/03/16 00:01:15;;;;;;;60.67;28.20;;;;;;;;;;5057883;28;20039;-60
2022/03/16 00:03:40;;;;;;;59.00;28.08;;;;;;;;;;5058097;28;20036;-59
2022/03/16 00:06:06;;;;;;;63.00;27.52;;;;;;;;;;5058177;28;20028;-60
2022/03/16 00:08:31;;;;;;;57.38;27.67;;;;;;;;;;5056045;28;20031;-60
2022/03/16 00:10:58;;;;;;;64.47;27.83;;;;;;;;;;5055201;28;20020;-60
2022/03/16 00:13:24;;;;;;;69.30;30.67;;;;;;;;;;5056322;28;20108;-58
2022/03/16 00:15:49;;;;;;;66.95;28.40;;;;;;;;;;5063869;28;20112;-60
2022/03/16 00:18:15;;;;;;;64.38;28.38;;;;;;;;;;5016407;28;1147359;-60
2022/03/16 00:20:40;;;;;;;69.35;29.65;;;;;;;;;;5055022;28;20372;-59
2022/03/16 00:23:06;;;;;;;69.28;31.42;;;;;;;;;;5062226;28;20032;-59
2022/03/16 00:25:31;;;;;;;73.65;31.63;;;;;;;;;;5055621;28;20029;-60
2022/03/16 00:27:57;;;;;;;65.13;29.00;;;;;;;;;;5062837;28;20020;-59
2022/03/16 00:30:22;;;;;;;67.25;29.83;;;;;;;;;;5060165;28;20082;-59
2022/03/16 00:32:48;;;;;;;65.05;30.45;;;;;;;;;;5063177;28;20381;-57
2022/03/16 00:35:13;;;;;;;70.53;29.90;;;;;;;;;;5055266;28;20115;-59
2022/03/16 00:37:39;;;;;;;70.55;31.63;;;;;;;;;;5055699;28;20484;-58
2022/03/16 00:40:05;;;;;;;67.22;29.70;;;;;;;;;;5059879;28;20047;-58
2022/03/16 00:42:30;;;;;;;67.18;30.15;;;;;;;;;;5063283;28;20035;-59
2022/03/16 00:44:56;;;;;;;69.20;29.98;;;;;;;;;;5057670;28;20028;-60
2022/03/16 00:47:21;;;;;;;64.80;28.60;;;;;;;;;;5061292;28;20025;-60
2022/03/16 00:49:47;;;;;;;68.82;29.17;;;;;;;;;;5060277;28;20130;-60
2022/03/16 00:52:12;;;;;;;61.40;28.13;;;;;;;;;;5057485;28;20040;-60
2022/03/16 00:54:38;;;;;;;62.53;28.10;;;;;;;;;;5061147;28;20487;-62
2022/03/16 00:57:03;;;;;;;62.95;28.63;;;;;;;;;;5058925;28;20049;-60
2022/03/16 00:59:29;;;;;;;63.15;28.27;;;;;;;;;;5055788;28;20039;-59
2022/03/16 01:01:54;;;;;;;59.75;27.50;;;;;;;;;;5057589;28;20033;-59
2022/03/16 01:04:20;;;;;;;60.75;28.25;;;;;;;;;;5060598;28;20051;-59
2022/03/16 01:06:45;;;;;;;57.88;26.45;;;;;;;;;;5055990;28;20485;-60
2022/03/16 01:09:11;;;;;;;59.92;26.08;;;;;;;;;;5061197;28;20400;-60
2022/03/16 01:11:37;;;;;;;64.15;27.70;;;;;;;;;;5060930;28;20072;-59
2022/03/16 01:14:03;;;;;;;60.20;26.73;;;;;;;;;;5056108;28;20078;-60
2022/03/16 01:16:28;;;;;;;58.45;26.42;;;;;;;;;;5062027;28;20107;-60
2022/03/16 01:18:54;;;;;;;58.88;25.83;;;;;;;;;;5059205;28;20028;-59
2022/03/16 01:21:19;;;;;;;56.90;25.92;;;;;;;;;;5059713;28;20020;-59
2022/03/16 01:23:45;;;;;;;53.75;24.70;;;;;;;;;;5059313;28;20071;-59
2022/03/16 01:26:10;;;;;;;60.35;26.98;;;;;;;;;;5067197;28;20029;-60
2022/03/16 01:28:35;;;;;;;58.38;24.38;;;;;;;;;;5066256;28;20032;-58
2022/03/16 01:31:01;;;;;;;59.92;26.27;;;;;;;;;;5066081;28;20032;-59
2022/03/16 01:33:28;;;;;;;56.70;25.98;;;;;;;;;;5062815;28;20024;-59
2022/03/16 01:35:53;;;;;;;61.08;26.42;;;;;;;;;;5065425;28;20035;-59
2022/03/16 01:38:19;;;;;;;63.00;26.90;;;;;;;;;;5065108;28;20024;-60
2022/03/16 01:40:45;;;;;;;59.80;26.92;;;;;;;;;;5065648;28;20053;-60
2022/03/16 01:43:10;;;;;;;62.65;26.50;;;;;;;;;;5063868;28;20081;-59
2022/03/16 01:45:36;;;;;;;60.92;25.67;;;;;;;;;;5062448;28;20036;-59
2022/03/16 01:48:02;;;;;;;59.30;25.63;;;;;;;;;;5061012;28;20055;-59
2022/03/16 01:50:27;;;;;;;61.53;25.45;;;;;;;;;;5062854;28;20116;-59
2022/03/16 01:52:52;;;;;;;66.97;27.15;;;;;;;;;;5061921;28;20464;-60
2022/03/16 01:55:19;;;;;;;61.92;26.95;;;;;;;;;;5061025;28;20024;-59
2022/03/16 01:57:47;;;;;;;58.65;26.83;;;;;;;;;;5060215;28;20036;-60
2022/03/16 02:00:13;;;;;;;63.30;26.55;;;;;;;;;;5058066;28;20024;-59
2022/03/16 02:02:39;;;;;;;67.38;27.90;;;;;;;;;;5062261;28;20032;-58
2022/03/16 02:05:05;;;;;;;59.08;26.00;;;;;;;;;;5057198;28;20453;-59
2022/03/16 02:07:31;;;;;;;59.33;26.42;;;;;;;;;;5061116;28;20174;-59
2022/03/16 02:09:59;;;;;;;66.60;27.77;;;;;;;;;;5063212;28;20205;-58
2022/03/16 02:12:25;;;;;;;64.20;29.27;;;;;;;;;;5059880;28;20062;-58
2022/03/16 02:14:50;;;;;;;71.57;30.27;;;;;;;;;;5061541;28;20067;-59
2022/03/16 02:17:16;;;;;;;70.05;28.90;;;;;;;;;;5056917;28;20104;-58
2022/03/16 02:19:41;;;;;;;75.38;30.92;;;;;;;;;;5055392;28;20043;-60
2022/03/16 02:22:10;;;;;;;72.00;28.60;;;;;;;;;;5062309;28;20028;-60
2022/03/16 02:24:35;;;;;;;77.80;30.25;;;;;;;;;;5055746;28;20029;-59
2022/03/16 02:27:01;;;;;;;72.38;29.15;;;;;;;;;;5061147;28;20540;-58
2022/03/16 02:29:26;;;;;;;82.70;30.10;;;;;;;;;;5060835;28;20036;-61
2022/03/16 02:31:52;;;;;;;77.53;29.95;;;;;;;;;;5060239;28;20442;-59
2022/03/16 02:34:17;;;;;;;78.68;30.63;;;;;;;;;;5060899;28;20029;-59
2022/03/16 02:36:43;;;;;;;79.00;30.17;;;;;;;;;;5058771;28;20472;-58
2022/03/16 02:39:08;;;;;;;77.95;29.67;;;;;;;;;;5066352;28;20027;-60
2022/03/16 02:41:34;;;;;;;86.07;30.83;;;;;;;;;;5061375;28;20136;-60
2022/03/16 02:43:59;;;;;;;76.15;29.77;;;;;;;;;;5060895;28;20504;-60
2022/03/16 02:46:25;;;;;;;72.93;28.92;;;;;;;;;;5063171;28;20021;-60
2022/03/16 02:48:50;;;;;;;69.75;27.60;;;;;;;;;;5060192;28;20212;-59
2022/03/16 02:51:16;;;;;;;74.10;29.35;;;;;;;;;;5062728;28;20437;-58
2022/03/16 02:53:41;;;;;;;74.68;27.17;;;;;;;;;;5061152;28;20036;-60
2022/03/16 02:56:07;;;;;;;76.07;28.98;;;;;;;;;;5061085;28;20492;-61
2022/03/16 02:58:33;;;;;;;77.78;30.00;;;;;;;;;;5058725;28;20021;-59
2022/03/16 03:00:59;;;;;;;79.72;30.10;;;;;;;;;;5057477;28;20050;-60
2022/03/16 03:03:24;;;;;;;73.63;29.83;;;;;;;;;;5058243;28;20397;-59
2022/03/16 03:05:52;;;;;;;77.80;29.58;;;;;;;;;;5059687;28;20031;-60
2022/03/16 03:08:17;;;;;;;73.88;29.90;;;;;;;;;;5057707;28;20025;-60
2022/03/16 03:10:42;;;;;;;78.45;30.77;;;;;;;;;;5055771;28;20041;-61
2022/03/16 03:13:08;;;;;;;81.43;30.50;;;;;;;;;;5058174;28;20060;-60
2022/03/16 03:15:33;;;;;;;79.10;30.92;;;;;;;;;;5061880;28;20032;-60
2022/03/16 03:17:59;;;;;;;86.28;31.27;;;;;;;;;;5058655;28;20471;-60
2022/03/16 03:20:24;;;;;;;86.78;31.35;;;;;;;;;;5054024;28;20502;-59
2022/03/16 03:22:50;;;;;;;75.43;29.30;;;;;;;;;;5060191;28;20028;-59
2022/03/16 03:25:15;;;;;;;93.95;33.08;;;;;;;;;;5052728;28;20029;-61
2022/03/16 03:27:41;;;;;;;86.38;32.05;;;;;;;;;;5063792;28;20379;-59
2022/03/16 03:30:07;;;;;;;91.50;32.80;;;;;;;;;;5050724;28;20028;-58
2022/03/16 03:32:33;;;;;;;86.80;33.13;;;;;;;;;;5056916;28;20025;-60
2022/03/16 03:34:59;;;;;;;96.18;34.17;;;;;;;;;;5065765;28;20024;-60
2022/03/16 03:37:29;;;;;;;98.10;33.00;;;;;;;;;;5061629;28;20498;-60
2022/03/16 03:39:55;;;;;;;91.82;34.20;;;;;;;;;;5062302;28;20028;-59
2022/03/16 03:42:20;;;;;;;95.45;33.72;;;;;;;;;;5059208;28;20074;-60
2022/03/16 03:44:46;;;;;;;81.45;31.20;;;;;;;;;;5060025;28;20035;-59
2022/03/16 03:47:12;;;;;;;85.18;31.23;;;;;;;;;;5059791;28;20037;-60
2022/03/16 03:49:39;;;;;;;91.25;33.35;;;;;;;;;;5055995;28;20115;-60
2022/03/16 03:52:06;;;;;;;89.47;32.63;;;;;;;;;;5062888;28;20025;-59
2022/03/16 03:54:31;;;;;;;88.80;32.13;;;;;;;;;;5059177;28;20029;-58
2022/03/16 03:56:57;;;;;;;90.53;33.53;;;;;;;;;;5059478;28;20157;-59
2022/03/16 03:59:23;;;;;;;88.85;32.90;;;;;;;;;;5061964;28;20021;-59
2022/03/16 04:01:49;;;;;;;79.40;30.27;;;;;;;;;;5056780;28;20032;-60
2022/03/16 04:04:15;;;;;;;85.93;31.00;;;;;;;;;;5056918;28;20028;-60
2022/03/16 04:06:40;;;;;;;84.25;31.52;;;;;;;;;;5057432;28;20021;-59
2022/03/16 04:09:06;;;;;;;78.18;31.20;;;;;;;;;;5062535;28;20029;-59
2022/03/16 04:11:32;;;;;;;77.38;30.27;;;;;;;;;;5062156;28;20419;-60
2022/03/16 04:13:58;;;;;;;82.63;29.70;;;;;;;;;;5056500;28;20027;-59
2022/03/16 04:16:23;;;;;;;83.03;33.42;;;;;;;;;;5052504;28;20028;-59
2022/03/16 04:18:49;;;;;;;83.30;33.17;;;;;;;;;;5056687;28;20051;-60
2022/03/16 04:21:14;;;;;;;103.40;36.33;;;;;;;;;;5061250;28;20337;-59
2022/03/16 04:23:40;;;;;;;91.97;34.83;;;;;;;;;;5064688;28;20483;-59
2022/03/16 04:26:05;;;;;;;99.10;33.78;;;;;;;;;;5060374;28;20532;-59
2022/03/16 04:28:31;;;;;;;91.78;33.38;;;;;;;;;;5057557;28;20460;-60
2022/03/16 04:30:56;;;;;;;95.35;32.22;;;;;;;;;;5054318;28;20035;-59
2022/03/16 04:33:22;;;;;;;92.68;32.88;;;;;;;;;;5062662;28;20024;-59
2022/03/16 04:35:47;;;;;;;95.72;34.47;;;;;;;;;;5060068;28;20037;-61
2022/03/16 04:38:13;;;;;;;94.40;35.10;;;;;;;;;;5058847;28;20036;-59
2022/03/16 04:40:38;;;;;;;87.25;32.30;;;;;;;;;;5062125;28;20051;-62
2022/03/16 04:43:03;;;;;;;87.70;33.03;;;;;;;;;;5067090;28;20492;-60
2022/03/16 04:45:29;;;;;;;80.28;30.63;;;;;;;;;;5063233;28;20024;-58
2022/03/16 04:47:54;;;;;;;83.30;32.05;;;;;;;;;;5059508;28;20025;-59
2022/03/16 04:50:20;;;;;;;80.28;32.50;;;;;;;;;;5056406;28;20031;-59
2022/03/16 04:52:48;;;;;;;83.15;33.30;;;;;;;;;;5066726;28;20049;-59
2022/03/16 04:55:14;;;;;;;80.78;33.25;;;;;;;;;;5059088;28;20048;-60
2022/03/16 04:57:39;;;;;;;78.07;31.15;;;;;;;;;;5063889;28;20021;-60
2022/03/16 05:00:05;;;;;;;86.75;32.15;;;;;;;;;;5064239;28;20085;-59
2022/03/16 05:02:31;;;;;;;79.20;32.55;;;;;;;;;;5057895;28;20029;-60
2022/03/16 05:04:56;;;;;;;86.30;32.97;;;;;;;;;;5064439;28;20098;-58
2022/03/16 05:07:21;;;;;;;87.80;31.85;;;;;;;;;;5060546;28;20502;-59
2022/03/16 05:09:47;;;;;;;92.40;32.92;;;;;;;;;;5060988;28;20029;-60
2022/03/16 05:12:12;;;;;;;95.15;33.80;;;;;;;;;;5065699;28;20373;-58
2022/03/16 05:14:38;;;;;;;92.15;35.58;;;;;;;;;;5065606;28;20028;-57
2022/03/16 05:17:03;;;;;;;84.55;31.52;;;;;;;;;;5053777;28;20025;-59
2022/03/16 05:19:30;;;;;;;87.95;32.75;;;;;;;;;;5060931;28;20484;-59
2022/03/16 05:21:56;;;;;;;97.10;32.35;;;;;;;;;;5055503;28;20040;-60
2022/03/16 05:24:22;;;;;;;74.65;31.25;;;;;;;;;;5060300;28;20357;-59
2022/03/16 05:26:48;;;;;;;77.78;30.30;;;;;;;;;;5061416;28;20016;-59
2022/03/16 05:29:14;;;;;;;77.43;30.70;;;;;;;;;;5069148;28;20036;-59
2022/03/16 05:31:39;;;;;;;69.05;29.13;;;;;;;;;;5062509;28;20028;-59
2022/03/16 05:34:05;;;;;;;70.50;28.75;;;;;;;;;;5060942;28;20021;-59
2022/03/16 05:36:30;;;;;;;65.00;28.27;;;;;;;;;;5054183;28;20040;-59
2022/03/16 05:38:56;;;;;;;63.95;26.98;;;;;;;;;;5064293;28;20031;-60
2022/03/16 05:41:21;;;;;;;64.63;28.30;;;;;;;;;;5063126;28;20079;-59
2022/03/16 05:43:46;;;;;;;68.43;28.30;;;;;;;;;;5062799;28;20063;-59
2022/03/16 05:46:12;;;;;;;75.05;31.30;;;;;;;;;;5062851;28;20028;-60
2022/03/16 05:48:37;;;;;;;80.78;31.00;;;;;;;;;;5062774;28;20061;-59
2022/03/16 05:51:03;;;;;;;84.32;31.90;;;;;;;;;;5061857;28;20024;-60
2022/03/16 05:53:28;;;;;;;86.43;32.67;;;;;;;;;;5063035;28;20060;-60
2022/03/16 05:55:54;;;;;;;77.95;30.73;;;;;;;;;;5063884;28;20104;-60
2022/03/16 05:58:21;;;;;;;81.53;30.85;;;;;;;;;;5059045;28;20025;-60
2022/03/16 06:00:46;;;;;;;88.13;33.00;;;;;;;;;;5060683;28;20028;-60
2022/03/16 06:03:12;;;;;;;78.55;30.05;;;;;;;;;;5057299;28;20059;-61
2022/03/16 06:05:37;;;;;;;85.43;32.45;;;;;;;;;;5060835;28;20031;-60
2022/03/16 06:08:03;;;;;;;88.25;33.10;;;;;;;;;;5057246;28;20039;-61
2022/03/16 06:10:29;;;;;;;90.95;33.38;;;;;;;;;;5066339;28;20099;-60
2022/03/16 06:12:57;;;;;;;91.22;33.47;;;;;;;;;;5060709;28;20384;-61
2022/03/16 06:15:26;;;;;;;96.38;35.65;;;;;;;;;;5059479;28;20037;-60
2022/03/16 06:17:56;;;;;;;93.25;32.42;;;;;;;;;;5055877;28;20029;-60
2022/03/16 06:20:23;;;;;;;86.43;31.58;;;;;;;;;;5060214;28;20036;-60
2022/03/16 06:22:48;;;;;;;81.80;32.38;;;;;;;;;;5063387;28;20039;-60
2022/03/16 06:25:14;;;;;;;77.57;29.52;;;;;;;;;;5058388;28;20021;-60
2022/03/16 06:27:40;;;;;;;77.30;29.25;;;;;;;;;;5066112;28;20069;-60
2022/03/16 06:30:06;;;;;;;87.13;31.85;;;;;;;;;;5067988;28;20426;-60
2022/03/16 06:32:31;;;;;;;93.95;29.98;;;;;;;;;;5062163;28;20020;-59
2022/03/16 06:34:57;;;;;;;85.53;32.38;;;;;;;;;;5053380;28;20032;-59
2022/03/16 06:37:22;;;;;;;85.53;31.98;;;;;;;;;;5056735;28;20025;-59
2022/03/16 06:39:48;;;;;;;87.18;32.33;;;;;;;;;;5059695;28;20591;-59
2022/03/16 06:42:13;;;;;;;91.85;32.20;;;;;;;;;;5056636;28;20032;-60
2022/03/16 06:44:39;;;;;;;83.10;29.90;;;;;;;;;;5056508;28;20123;-59
2022/03/16 06:47:05;;;;;;;90.38;32.03;;;;;;;;;;5061732;28;20041;-59
2022/03/16 06:49:30;;;;;;;85.75;32.08;;;;;;;;;;5060907;28;20024;-59
2022/03/16 06:51:55;;;;;;;97.05;33.10;;;;;;;;;;5062136;28;20040;-59
2022/03/16 06:54:21;;;;;;;85.45;32.10;;;;;;;;;;5055956;28;20024;-60
2022/03/16 06:56:46;;;;;;;76.13;30.55;;;;;;;;;;5057350;28;20039;-60
2022/03/16 06:59:12;;;;;;;85.72;30.58;;;;;;;;;;5059940;28;20047;-60
2022/03/16 07:01:37;;;;;;;78.65;30.25;;;;;;;;;;5058993;28;20040;-60
2022/03/16 07:04:03;;;;;;;76.35;30.30;;;;;;;;;;5059184;28;20029;-60
2022/03/16 07:06:29;;;;;;;72.28;29.23;;;;;;;;;;5051192;28;20029;-59
2022/03/16 07:08:55;;;;;;;73.07;30.23;;;;;;;;;;5053077;28;20043;-60
2022/03/16 07:11:20;;;;;;;77.20;29.40;;;;;;;;;;5053447;28;20217;-60
2022/03/16 07:14:30;;;;;;;74.05;30.00;;;;;;;;;;5053699;28;20373;-59
2022/03/16 07:16:32;;;;;;;84.53;33.47;;;;;;;;;;5052527;28;20330;-60
2022/03/16 07:18:58;;;;;;;82.50;31.25;;;;;;;;;;5053209;28;20383;-59
2022/03/16 07:21:23;;;;;;;81.57;32.28;;;;;;;;;;5053182;28;20027;-59
2022/03/16 07:23:48;;;;;;;76.50;29.25;;;;;;;;;;5063386;28;20122;-61
2022/03/16 07:26:14;;;;;;;72.82;29.58;;;;;;;;;;5056127;28;20056;-61
2022/03/16 07:28:39;;;;;;;82.18;30.77;;;;;;;;;;5051352;28;20024;-61
2022/03/16 07:31:05;;;;;;;80.95;29.23;;;;;;;;;;5063526;28;20107;-59
2022/03/16 07:33:30;;;;;;;75.07;30.50;;;;;;;;;;5063935;28;20032;-60
2022/03/16 07:35:56;;;;;;;80.57;31.20;;;;;;;;;;5057786;28;20032;-60
2022/03/16 07:38:21;;;;;;;78.05;30.60;;;;;;;;;;5062437;28;20032;-60
2022/03/16 07:40:47;;;;;;;70.75;29.13;;;;;;;;;;5062639;28;20035;-59
2022/03/16 07:43:14;;;;;;;81.05;31.98;;;;;;;;;;5062649;28;20082;-60
2022/03/16 07:45:40;;;;;;;71.90;28.83;;;;;;;;;;5059679;28;20033;-60
2022/03/16 07:48:05;;;;;;;74.45;31.38;;;;;;;;;;5061832;28;20430;-60
2022/03/16 07:50:32;;;;;;;80.05;29.10;;;;;;;;;;5053815;28;20077;-60
2022/03/16 07:52:58;;;;;;;78.95;33.50;;;;;;;;;;5047367;28;20028;-62
2022/03/16 07:55:24;;;;;;;73.43;32.00;;;;;;;;;;5047309;28;20516;-61
2022/03/16 07:57:52;;;;;;;104.38;43.53;;;;;;;;;;5052901;28;20033;-61
2022/03/16 08:00:17;;;;;;;101.20;42.22;;;;;;;;;;5053007;28;20053;-60
2022/03/16 08:02:46;;;;;;;101.63;42.58;;;;;;;;;;5049682;28;20492;-60
2022/03/16 08:05:12;;;;;;;98.78;40.50;;;;;;;;;;5055046;28;20098;-60
2022/03/16 08:07:38;;;;;;;92.20;35.60;;;;;;;;;;5054946;28;20114;-59
2022/03/16 08:10:04;;;;;;;89.60;34.80;;;;;;;;;;5058185;28;20147;-60
2022/03/16 08:12:30;;;;;;;92.60;34.80;;;;;;;;;;5062913;28;20104;-60
2022/03/16 08:14:56;;;;;;;89.93;34.92;;;;;;;;;;5061575;28;20131;-60
2022/03/16 08:17:22;;;;;;;88.97;33.05;;;;;;;;;;5062789;28;20073;-61
2022/03/16 08:19:48;;;;;;;87.78;33.22;;;;;;;;;;5066938;28;20032;-60
2022/03/16 08:22:13;;;;;;;87.15;32.83;;;;;;;;;;5064560;28;20035;-60
2022/03/16 08:24:39;;;;;;;85.75;32.65;;;;;;;;;;5063451;28;20024;-60
2022/03/16 08:27:05;;;;;;;88.60;31.95;;;;;;;;;;5060238;28;20491;-60
2022/03/16 08:29:30;;;;;;;86.63;31.05;;;;;;;;;;5056017;28;20376;-59
2022/03/16 08:31:57;;;;;;;86.57;32.45;;;;;;;;;;5056605;28;20103;-60
2022/03/16 08:34:23;;;;;;;79.72;31.55;;;;;;;;;;5057330;28;20032;-60
2022/03/16 08:36:48;;;;;;;78.97;30.77;;;;;;;;;;5058694;28;20396;-60
2022/03/16 08:39:14;;;;;;;84.95;31.77;;;;;;;;;;5052367;28;20044;-60
2022/03/16 08:41:40;;;;;;;77.90;29.02;;;;;;;;;;5058931;28;20099;-60
2022/03/16 08:44:07;;;;;;;87.65;31.95;;;;;;;;;;5055062;28;20044;-60
2022/03/16 08:46:33;;;;;;;79.68;32.08;;;;;;;;;;5054077;28;20040;-60
2022/03/16 08:48:58;;;;;;;77.32;30.05;;;;;;;;;;5053172;28;20027;-60
2022/03/16 08:51:23;;;;;;;81.53;28.95;;;;;;;;;;5058713;28;20396;-60
2022/03/16 08:53:49;;;;;;;76.18;30.40;;;;;;;;;;5062980;28;20028;-58
2022/03/16 08:56:15;;;;;;;77.60;30.45;;;;;;;;;;5054765;28;20465;-59
2022/03/16 08:58:41;;;;;;;79.47;28.85;;;;;;;;;;5053999;28;20032;-60
2022/03/16 09:01:06;;;;;;;73.95;30.08;;;;;;;;;;5052441;28;20456;-59
2022/03/16 09:03:32;;;;;;;78.30;29.60;;;;;;;;;;5060455;28;20550;-58
2022/03/16 09:05:59;;;;;;;74.97;29.48;;;;;;;;;;5062849;28;20028;-60
2022/03/16 09:08:24;;;;;;;72.95;29.25;;;;;;;;;;5064148;28;20020;-60
2022/03/16 09:10:50;;;;;;;72.82;29.98;;;;;;;;;;5062359;28;20399;-59
2022/03/16 09:13:16;;;;;;;72.90;30.65;;;;;;;;;;5061105;28;20032;-59
2022/03/16 09:15:45;;;;;;;73.07;30.48;;;;;;;;;;5056229;28;20048;-60
2022/03/16 09:18:11;;;;;;;71.85;28.75;;;;;;;;;;5060174;28;20203;-60
2022/03/16 09:20:37;;;;;;;73.13;28.77;;;;;;;;;;5060641;28;20059;-60
2022/03/16 09:23:03;;;;;;;78.32;29.85;;;;;;;;;;5062636;28;20028;-61
2022/03/16 09:25:28;;;;;;;55.40;24.58;;;;;;;;;;5055795;28;20028;-60
2022/03/16 09:27:54;;;;;;;30.42;15.80;;;;;;;;;;5058037;28;20417;-60
2022/03/16 09:30:21;;;;;;;32.35;16.30;;;;;;;;;;5059212;28;20039;-60
2022/03/16 09:32:46;;;;;;;30.77;15.25;;;;;;;;;;5053700;28;20032;-60
2022/03/16 09:35:11;;;;;;;29.83;15.13;;;;;;;;;;5063238;28;20515;-60
2022/03/16 09:37:37;;;;;;;32.45;15.70;;;;;;;;;;5055936;28;20064;-59
2022/03/16 09:40:04;;;;;;;32.67;16.35;;;;;;;;;;5049508;28;20110;-60
2022/03/16 09:42:31;;;;;;;32.58;15.93;;;;;;;;;;5051290;28;20024;-60
2022/03/16 09:45:01;;;;;;;31.50;16.75;;;;;;;;;;5052540;28;20100;-60
2022/03/16 09:47:27;;;;;;;30.65;16.73;;;;;;;;;;5053763;28;20017;-60
2022/03/16 09:49:53;;;;;;;35.28;16.95;;;;;;;;;;5054611;28;20037;-60
2022/03/16 09:52:19;;;;;;;35.20;16.38;;;;;;;;;;5049319;28;20584;-60
2022/03/16 09:54:46;;;;;;;33.33;15.85;;;;;;;;;;5053697;28;20112;-60
2022/03/16 09:57:11;;;;;;;34.53;17.00;;;;;;;;;;5052525;28;20465;-58
2022/03/16 09:59:37;;;;;;;31.90;16.55;;;;;;;;;;5055161;28;20028;-60
2022/03/16 10:02:11;;;;;;;32.80;16.65;;;;;;;;;;5062569;28;20033;-60
2022/03/16 10:04:38;;;;;;;34.53;16.73;;;;;;;;;;5054303;28;20037;-60
2022/03/16 10:07:05;;;;;;;34.80;16.77;;;;;;;;;;5063409;28;20463;-60
2022/03/16 10:15:11;;;;;;;35.63;16.83;;;;;;;;;;5060866;28;20043;-61
2022/03/16 10:17:45;;;;;;;34.05;16.38;;;;;;;;;;5054594;28;20066;-61
2022/03/16 10:20:28;;;;;;;34.25;16.40;;;;;;;;;;5054401;28;20025;-60
2022/03/16 10:23:16;;;;;;;32.60;16.80;;;;;;;;;;5057321;28;20029;-61
2022/03/16 10:25:45;;;;;;;35.50;16.77;;;;;;;;;;5058957;28;20431;-60
2022/03/16 10:28:16;;;;;;;42.38;17.27;;;;;;;;;;5056854;28;20098;-61
2022/03/16 10:31:02;;;;;;;36.58;16.70;;;;;;;;;;5042762;28;20031;-60
2022/03/16 10:33:30;;;;;;;34.50;16.20;;;;;;;;;;5051354;28;20523;-61
2022/03/16 10:36:00;;;;;;;35.33;16.50;;;;;;;;;;5050914;28;20039;-60
2022/03/16 10:38:26;;;;;;;34.72;16.80;;;;;;;;;;5049954;28;20017;-60
2022/03/16 10:41:09;;;;;;;31.63;16.05;;;;;;;;;;5051629;28;20395;-61
2022/03/16 10:46:35;;;;;;;35.88;16.80;;;;;;;;;;5049682;28;20031;-61
2022/03/16 10:49:09;;;;;;;34.92;16.80;;;;;;;;;;5050233;28;20017;-60
2022/03/16 10:51:36;;;;;;;29.42;15.25;;;;;;;;;;5057396;28;20447;-61
2022/03/16 10:54:03;;;;;;;33.20;16.70;;;;;;;;;;5054175;28;20017;-61
2022/03/16 10:56:30;;;;;;;32.67;16.80;;;;;;;;;;5052824;28;20040;-61
2022/03/16 10:58:56;;;;;;;33.05;16.17;;;;;;;;;;5050167;28;20404;-59
2022/03/16 11:01:22;;;;;;;35.13;16.05;;;;;;;;;;5051314;28;20031;-59
2022/03/16 11:03:50;;;;;;;31.95;16.48;;;;;;;;;;5050110;28;20035;-58
2022/03/16 11:06:20;;;;;;;32.70;16.95;;;;;;;;;;5054672;28;20029;-59
2022/03/16 11:08:47;;;;;;;35.50;16.45;;;;;;;;;;5056236;28;20460;-59
2022/03/16 11:14:00;;;;;;;29.27;15.23;;;;;;;;;;5051501;28;20032;-59
2022/03/16 11:16:26;;;;;;;33.97;15.55;;;;;;;;;;5057843;28;20032;-59
2022/03/16 11:18:52;;;;;;;36.75;16.50;;;;;;;;;;5053146;28;20514;-58
2022/03/16 11:21:29;;;;;;;35.85;16.67;;;;;;;;;;5054441;28;20059;-58
2022/03/16 11:24:16;;;;;;;31.98;16.15;;;;;;;;;;5056625;28;20435;-59
2022/03/16 11:27:09;;;;;;;31.27;15.98;;;;;;;;;;5055886;28;20039;-61
2022/03/16 11:29:50;;;;;;;33.65;17.02;;;;;;;;;;5055060;28;20024;-59
2022/03/16 11:32:18;;;;;;;31.15;16.70;;;;;;;;;;5048164;28;20044;-59
2022/03/16 11:34:58;;;;;;;35.30;16.80;;;;;;;;;;5056230;28;20054;-58
2022/03/16 11:37:52;;;;;;;33.40;16.90;;;;;;;;;;5055732;28;20024;-58
2022/03/16 11:40:20;;;;;;;34.60;17.35;;;;;;;;;;5052605;28;20116;-60
2022/03/16 11:43:04;;;;;;;34.03;18.10;;;;;;;;;;5047292;28;20024;-60
2022/03/16 11:45:38;;;;;;;32.53;16.45;;;;;;;;;;5055220;28;20029;-59
2022/03/16 11:48:31;;;;;;;33.25;16.17;;;;;;;;;;5052439;28;20025;-60
2022/03/16 11:51:09;;;;;;;34.15;18.05;;;;;;;;;;5052383;28;20147;-60
2022/03/16 11:53:51;;;;;;;31.50;15.95;;;;;;;;;;5059239;28;20059;-60
2022/03/16 11:56:42;;;;;;;30.77;15.57;;;;;;;;;;5061430;28;20094;-59
2022/03/16 11:59:16;;;;;;;30.20;14.90;;;;;;;;;;5052299;28;20491;-60
2022/03/16 12:01:48;;;;;;;32.10;16.02;;;;;;;;;;5058124;28;20048;-60
2022/03/16 12:04:16;;;;;;;31.98;16.35;;;;;;;;;;5057503;28;20055;-59
2022/03/16 12:06:53;;;;;;;30.67;15.98;;;;;;;;;;5056640;28;20071;-60
2022/03/16 12:09:29;;;;;;;27.45;15.23;;;;;;;;;;5056455;28;20459;-59
2022/03/16 12:12:54;;;;;;;28.90;14.85;;;;;;;;;;5056058;28;20036;-60
2022/03/16 12:15:33;;;;;;;32.10;15.73;;;;;;;;;;5054339;28;20107;-60
2022/03/16 12:17:59;;;;;;;28.58;15.00;;;;;;;;;;5048084;28;20049;-60
2022/03/16 12:20:27;;;;;;;27.83;15.55;;;;;;;;;;5051411;28;20079;-60
2022/03/16 12:23:01;;;;;;;28.40;15.33;;;;;;;;;;5050176;28;20024;-60
2022/03/16 12:25:27;;;;;;;29.17;14.93;;;;;;;;;;5053633;28;20017;-60
2022/03/16 12:30:50;;;;;;;32.95;15.63;;;;;;;;;;5052463;28;20112;-59
2022/03/16 12:33:24;;;;;;;29.42;15.88;;;;;;;;;;5048762;28;20404;-61
2022/03/16 12:35:54;;;;;;;30.23;15.85;;;;;;;;;;5063955;28;20017;-59
2022/03/16 12:38:22;;;;;;;30.42;15.57;;;;;;;;;;5048578;28;20531;-58
2022/03/16 12:43:33;;;;;;;27.17;14.60;;;;;;;;;;5057567;28;20507;-59
2022/03/16 12:46:25;;;;;;;33.53;15.90;;;;;;;;;;5064746;28;20565;-59
2022/03/16 12:48:56;;;;;;;33.78;15.43;;;;;;;;;;5052587;28;20039;-59
2022/03/16 12:51:33;;;;;;;33.30;15.18;;;;;;;;;;5057805;28;20390;-59
2022/03/16 12:53:59;;;;;;;35.25;15.23;;;;;;;;;;5053848;28;20074;-58
2022/03/16 12:56:24;;;;;;;28.50;14.77;;;;;;;;;;5052993;28;20392;-58
2022/03/16 12:58:54;;;;;;;28.42;15.05;;;;;;;;;;5056886;28;20456;-59
2022/03/16 13:01:21;;;;;;;32.85;15.93;;;;;;;;;;5058507;28;20070;-59
2022/03/16 13:03:48;;;;;;;35.17;16.25;;;;;;;;;;5059551;28;20032;-59
2022/03/16 13:06:18;;;;;;;34.75;16.05;;;;;;;;;;5054947;28;20534;-60
2022/03/16 13:08:52;;;;;;;36.92;15.50;;;;;;;;;;5060022;28;20040;-59
2022/03/16 13:11:25;;;;;;;28.63;13.77;;;;;;;;;;5056280;28;20453;-59
2022/03/16 13:14:00;;;;;;;32.45;14.75;;;;;;;;;;5058067;28;20028;-59
2022/03/16 13:16:36;;;;;;;32.58;14.52;;;;;;;;;;5056044;28;20033;-59
2022/03/16 13:19:03;;;;;;;29.88;14.48;;;;;;;;;;5057464;28;20021;-59
2022/03/16 13:21:30;;;;;;;28.70;14.68;;;;;;;;;;5057943;28;20322;-59
2022/03/16 13:24:12;;;;;;;33.08;15.95;;;;;;;;;;5052994;28;20032;-60
2022/03/16 13:26:38;;;;;;;33.40;16.63;;;;;;;;;;5059147;28;20373;-60
2022/03/16 13:29:12;;;;;;;32.70;16.20;;;;;;;;;;5056654;28;20020;-59
2022/03/16 13:31:40;;;;;;;30.77;16.00;;;;;;;;;;5057080;28;20032;-60
2022/03/16 13:34:06;;;;;;;34.92;16.40;;;;;;;;;;5057402;28;20035;-59
2022/03/16 13:36:45;;;;;;;37.85;16.80;;;;;;;;;;5053263;28;20033;-60
2022/03/16 13:39:22;;;;;;;30.58;14.63;;;;;;;;;;5055921;28;20051;-60
2022/03/16 13:42:13;;;;;;;35.13;16.30;;;;;;;;;;5053333;28;20496;-60
2022/03/16 13:44:47;;;;;;;36.15;16.98;;;;;;;;;;5053707;28;20033;-60
2022/03/16 13:47:12;;;;;;;35.13;16.33;;;;;;;;;;5062603;28;20032;-59
2022/03/16 13:49:43;;;;;;;34.80;16.77;;;;;;;;;;5060198;28;20025;-58
2022/03/16 13:52:21;;;;;;;33.38;16.17;;;;;;;;;;5061735;28;20516;-60
2022/03/16 13:54:51;;;;;;;40.15;17.73;;;;;;;;;;5058643;28;20040;-60
2022/03/16 13:57:23;;;;;;;;;;;;;;;;;;5056499;28;20036;-59
2022/03/16 14:00:03;;;;;;;36.28;16.52;;;;;;;;;;5056974;28;20419;-59
2022/03/16 14:02:31;;;;;;;40.15;17.60;;;;;;;;;;5057897;28;20040;-58
2022/03/16 14:05:01;;;;;;;35.33;16.37;;;;;;;;;;5055770;28;20032;-58
2022/03/16 14:07:41;;;;;;;37.80;18.30;;;;;;;;;;5057033;28;20025;-58
2022/03/16 14:10:08;;;;;;;42.08;18.48;;;;;;;;;;5051435;28;20025;-58
2022/03/16 14:12:41;;;;;;;42.58;19.58;;;;;;;;;;5051351;28;20079;-58
2022/03/16 14:15:18;;;;;;;38.42;18.00;;;;;;;;;;5052360;28;20532;-58
2022/03/16 14:17:47;;;;;;;35.05;16.75;;;;;;;;;;5057847;28;20381;-59
2022/03/16 14:20:18;;;;;;;37.38;18.05;;;;;;;;;;5054404;28;20024;-58
2022/03/16 14:22:52;;;;;;;35.05;17.33;;;;;;;;;;5051550;28;20016;-58
2022/03/16 14:25:24;;;;;;;37.33;17.35;;;;;;;;;;5059936;28;20031;-58
2022/03/16 14:27:52;;;;;;;36.55;17.48;;;;;;;;;;5056346;28;20025;-58
2022/03/16 14:30:20;;;;;;;38.92;18.35;;;;;;;;;;5052098;28;20029;-59
2022/03/16 14:32:49;;;;;;;38.45;18.55;;;;;;;;;;5052692;28;20032;-59
2022/03/16 14:35:15;;;;;;;;;;;;;;;;;;5054765;28;20051;-59
2022/03/16 14:37:42;;;;;;;40.28;18.88;;;;;;;;;;5054033;28;20392;-59
2022/03/16 14:40:08;;;;;;;42.80;20.08;;;;;;;;;;5051368;28;20051;-59